Create Custom Reports and Graphics: Custom Report

Lodi West

11 Stations

Daily Data | America/Los_Angeles
as of 2/23/20 5:14 PM PST
Station Date Daily Max Temp (°F) Max Temp Time Daily Min Temp (°F) Min Temp Time Dew Pt (°F) Max RH (%) Min RH (%) Wind Spd (mph) Daily Max Wind (mph) Max Wind Time Max Wind Dir (°) Daily Rain (In) Seasonal Rainfall (In) Daily ETo (in) Daily Solar Rad (Cal/cm2) Powdery Mildew Stress (pts)
Claussen 2/22/20 74.9   2.9 1236 51.1   10.3 2051 43.7   3.4 81   7 28   6 5.0   1.2 21.7   5.5 1544 WSW | 250 0.00 3.87 0.129   0.020 388   45 0   0
Clarksburg (CLK) 2/22/20 72.9   0.2 1330 38.3   2.2 0541 42.3   3.3 94   6 30   7 5.2   1.5 20.0   4.3 1603 WSW | 247 0.00 4.01 0.122   0.003 402   11 0   0
Courtland-C3 2/22/20 71.6   0.9 1339 40.9   4.1 0426 41.4   4.1 92   0 32   6 5.5   1.4 20.5   5.1 1518 SSW | 212 0.00 5.39 - - 0   0
Elk Grove-CK (EGW) 1/14/20 55.0   1.2 1502 38.9   1.2 2347 38.4   1.5 91   1 43   7 5.5   0.7 16.5   2.4 1033 WSW | 253 0.03 4.92 0.052   0.007 252   25 0   0
Guard Rd (Lodi WSW) 2/22/20 72.8   0.5 1400 43.2   3.7 2350 41.7   2.0 96   3 26   1 4.1   0.9 21.3   8.8 1624 W | 272 0.00 5.06 0.128   0.015 392   11 0   0
Gorter - Wilson 2/22/20 72.1   2.2 1336 40.6   6.1 0524 42.7   3.5 89   8 32   8 5.8   1.9 18.2   4.6 1635 WSW | 246 0.00 5.08 0.128   0.007 406   13 0   0
Hood (HOD) 2/22/20 72.8   0.9 1322 43.1   5.1 0521 41.9   4.1 89   7 29   7 5.7   2.6 19.7   5.5 1536 WSW | 252 0.00 6.61 0.115   0.005 344   7 0   0
Pacific Fruit 2/22/20 72.8   1.9 1352 45.1   3.8 0356 42.8   4.6 91   8 31   7 6.5   3.7 24.4   10.0 1555 W | 260 0.00 5.78 0.123   0.014 354   7 0   0
Ryer Island South (RIS) 2/22/20 73.7   0.0 1311 43.1   3.9 0542 42.8   6.1 88   6 27   6 5.5   1.8 22.8   8.9 1917 W | 264 0.00 5.87 0.121   0.002 369   19 0   0
Utter - Wilson 2/22/20 73.3   2.9 1454 41.5   3.8 0554 42.8   2.3 92   4 32   7 5.6   1.0 17.8   2.4 1849 SW | 223 0.00 6.53 0.122   0.015 387   14 0   0
Clarksburg-3A2 2/22/20 71.8   1.0 1314 39.3   4.6 0559 42.3   2.8 93   6 29   3 7.2   3.0 21.6   6.9 1615 SW | 225 0.00 5.92 0.057   0.002 0   0 0   0
Max   74.9 - 51.1 - 43.7 96 32 7.2 24.4 - - 0.00 - 0.129 406 0
Avg   - - - - 42.4 - - 5.6 - - - - - - - -
Min   71.6 - 38.3 - 41.4 81 26 4.1 17.8 - - 0.00 - 0.057 0 0

Lodi Central

Yesterday's Observations

Daily Data | America/Los_Angeles
as of 2/23/20 5:14 PM PST
Station Date Daily Max Temp (°F) Max Temp Time Daily Min Temp (°F) Min Temp Time Dew Pt (°F) Max RH (%) Min RH (%) Wind Spd (mph) Daily Max Wind (mph) Max Wind Time Max Wind Dir (°) Daily Rain (In) Seasonal Rainfall (In) Daily ETo (in) Daily Solar Rad (Cal/cm2) Powdery Mildew Stress (pts)
Galt West (GAW) 2/22/20 72.9   0.3 1408 42.8   6.8 0004 41.4   2.5 91   0 30   0 4.6   1.9 19.1   6.8 1603 WSW | 241 0.00 6.14 0.119   0.009 357   16 0   0
Valley Oak 2/22/20 72.4   1.5 1355 42.7   7.1 2322 38.8   1.7 92   0 21   3 4.1   1.7 18.6   5.0 1513 W | 267 0.00 5.19 0.122   0.011 367   11 0   0
Thornton 2/22/20 73.7   1.2 1413 43.3   6.9 2333 39.2   1.9 86   2 24   1 3.9   1.2 22.2   8.4 1542 WSW | 253 0.00 4.43 0.118   0.010 307   21 0   0
Kost Rd 2/22/20 72.6   1.4 1420 42.7   7.8 2330 42.3   1.8 96   2 30   1 3.9   1.6 15.8   5.5 1534 WNW | 284 0.00 5.27 0.118   0.014 354   11 0   0
DeVries Road-North 2/22/20 72.6   1.7 1437 43.1   6.5 2355 41.1   1.6 93   0 29   1 4.0   1.4 16.4   5.2 1606 WSW | 250 0.00 5.33 0.121   0.016 367   4 0   0
Lodi (LangeTwins) 2/22/20 73.0   0.2 1425 43.2   6.9 2359 41.4   1.3 92   2 29   2 4.2   2.5 17.5   7.0 1551 SW | 232 0.00 6.17 0.121   0.024 361   9 0   0
Acampo (ACP) 2/22/20 72.4   0.2 1435 43.3   7.5 2358 38.4   1.0 88   3 22   2 3.0   1.7 16.2   0.3 1536 W | 275 0.00 6.12 0.122   0.025 376   20 0   0
Lodi West (MDW) 2/22/20 72.7   0.1 1330 44.1   3.2 2337 40.5   1.4 89   1 23   2 3.1   0.4 18.6   7.0 1629 W | 274 0.00 5.03 0.120   0.014 388   20 0   0
Max   73.7 - 44.1 - 42.3 96 30 4.6 22.2 - - 0.00 - 0.122 388 0
Avg   - - - - 40.4 - - 3.8 - - - - - - - -
Min   72.4 - 42.7 - 38.4 86 21 3.0 15.8 - - 0.00 - 0.118 307 0

Lodi South

20 Stations

Daily Data
as of 2/23/20 5:14 PM PST
Station Date Daily Max Temp (°F) Max Temp Time Daily Min Temp (°F) Min Temp Time Dew Pt (°F) Max RH (%) Min RH (%) Wind Spd (mph) Wind Dir (°) Daily Max Wind (mph) Max Wind Time Daily Rain (In) Seasonal Rainfall (In) Daily ETo (in) Daily Solar Rad (Cal/cm2) Powdery Mildew Stress (pts)
Borden Hills 2/22/20 73.7   0.6 1458 44.1   5.2 0001 43.3   1.5 94   1 30   3 5.2   1.6 WSW | 239 18.5   4.7 1243 0.00 5.60 0.138   0.027 379   26 0   0
Clay Station (CLA) 12/17/19 57.8   1.8 1412 36.2   6.4 0347 35.8   1.6 96   2 28   30 1.7   0.2 NNE | 19 9.8   0.5 1423 0.00 2.95 0.018   0.022 132   105 0   0
Collegeville (COL) 2/22/20 74.0   1.5 1350 48.2   12.3 2304 39.9   1.6 86   10 20   7 5.2   1.6 WNW | 283 19.0   0.9 1533 0.00 6.30 0.140   0.025 369   26 0   0
Galt-East (EGT) 2/22/20 72.7   0.8 1428 41.7   6.2 2357 40.9   2.1 94   1 26   2 4.0   1.4 SW | 232 17.8   2.2 1452 0.00 5.52 0.126   0.024 365   29 0   0
Escalon (ESL) 2/22/20 75.2   3.8 1524 43.8   5.2 2337 40.2   0.8 97   3 19   11 3.4   0.8 NW | 310 16.3   5.2 1421 0.00 5.22 - - 0   0
Victor - N (Katusha) 2/22/20 72.2   1.0 1451 42.8   6.4 2344 38.3   0.9 96   3 23   2 3.7   1.5 - 14.8   0.3 1602 0.00 4.42 - - 0   0
Teresi-Alpine Rd (East Lodi) 2/22/20 74.6   1.9 1421 42.1   5.1 2355 39.8   1.2 96   0 22   5 4.1   1.4 W | 265 17.1   4.0 1532 0.00 5.50 0.140   0.030 387   39 0   0
Gilbeau Ranch 2/22/20 72.0   1.0 1423 41.9   6.8 2359 39.6   1.6 94   2 23   1 3.6   1.8 WSW | 251 14.9   0.9 1442 0.00 5.27 0.124   0.026 377   32 0   0
Lodi 8/31/19 96.7   5.8 1613 51.4   1.3 0616 54.1   2.2 - - 1.1   0.8 - 8.3   0.3 1242 0.00 0.00 0.185   0.012 560   3 0   10
Linden (LIN) 2/22/20 72.8   0.1 1429 48.7   14.5 2231 39.3   1.6 83   15 21   6 3.7   1.2 W | 260 15.2   1.8 1437 0.00 5.99 - - 0   0
Live Oak (LIV) 2/22/20 72.9   0.6 1436 43.0   5.2 2357 39.3   1.0 91   1 23   3 3.8   1.1 W | 260 18.6   6.8 1636 0.00 5.90 0.129   0.027 360   35 0   0
Lockeford (LOC) 2/22/20 73.0   1.3 1433 42.1   6.4 2355 - - - 4.3   1.5 WSW | 258 17.2   2.5 1515 0.00 5.21 0.161   0.039 355   27 0   0
Lone Oak-L28 2/22/20 71.6   0.2 1531 40.6   7.5 2348 41.1   1.5 96   2 28   4 4.4   1.5 W | 260 15.9   2.1 1459 0.00 5.91 - 0   0 0   0
Colony 1 2/22/20 78.1   2.8 1445 41.8   7.3 0100 41.7   2.6 94   6 24   1 4.1   1.9 SW | 229 17.3   5.2 1241 0.00 6.03 0.136   0.016 402   1 0   0
Colony 2 2/22/20 78.7   4.4 1350 43.1   8.8 2345 42.5   3.3 92   4 27   6 4.9   2.1 SW | 228 17.3   4.6 1217 0.00 5.69 0.137   0.016 380   9 0   0
Sheldon (SHL) 2/22/20 72.0   1.1 1458 42.2   8.4 0444 40.4   3.0 91   5 25   0 4.7   1.6 SW | 221 16.8   3.7 1521 0.00 6.13 0.126   0.009 372   2 0   0
Sierra Loma-L27 2/22/20 72.6   0.8 1445 44.4   6.9 2359 41.9   1.4 93   0 28   3 4.6   1.2 WSW | 254 20.0   4.5 1244 0.00 5.67 - - 0   0
Simmerhorn (SIM) 2/22/20 71.1   1.5 1429 40.8   5.2 2347 39.0   1.6 97   0 26   1 - - - - - - - - 0   0
Sloughhouse (SLH) 2/22/20 72.6   0.9 1519 39.3   6.3 0101 35.0   1.2 50   0 50   0 1.9   0.8 WSW | 239 13.8   1.7 1416 0.00 6.66 0.075   0.008 218   1 0   0
5 Wells 2/22/20 72.1   0.2 1416 42.0   7.2 2347 40.0   1.3 95   2 25   0 5.4   2.2 SW | 233 19.2   5.8 1303 0.00 5.10 0.118   0.029 230   24 0   0
Max   78.7 - 48.7 - 43.3 97 50 5.4 - 20.0 - 0.00 - 0.161 402 0
Avg   - - - - 40.1 - - 4.2 - - - - - - - -
Min   71.1 - 39.3 - 35.0 50 19 1.9 - 13.8 - 0.00 - 0.075 0 0